Time;durP1;ratioP1;P1;durP2;ratioP2;P2;SDS_P1;SDS_P2;PMS_P1;PMS_P2;Temp;Humidity;BMP_temperature;BMP_pressure;BME280_temperature;BME280_humidity;BME280_pressure;Samples;Min_cycle;Max_cycle;Signal;HPM_P1;HPM_P2
2023/03/14 00:01:58;;;;;;;;;;;;;;;25.14;26.05;101252.84;5056906;28;1902;-38
2023/03/14 00:04:23;;;;;;;;;;;;;;;25.02;26.34;101244.16;5056538;28;1055;-38
2023/03/14 00:06:49;;;;;;;;;;;;;;;25.06;26.29;101240.13;5057068;28;1154;-36
2023/03/14 00:09:15;;;;;;;;;;;;;;;24.93;26.54;101235.16;5057010;28;1074;-35
2023/03/14 00:11:40;;;;;;;;;;;;;;;24.97;26.35;101235.69;5056765;28;1082;-37
2023/03/14 00:14:06;;;;;;;;;;;;;;;24.99;26.43;101236.41;5056814;28;1166;-35
2023/03/14 00:16:31;;;;;;;;;;;;;;;24.97;26.26;101236.56;5056618;28;1114;-37
2023/03/14 00:19:00;;;;;;;;;;;;;;;24.96;26.27;101228.63;5057226;28;1106;-39
2023/03/14 00:21:25;;;;;;;;;;;;;;;24.99;26.20;101231.00;5055968;28;1898;-38
2023/03/14 00:23:51;;;;;;;;;;;;;;;24.97;26.34;101233.00;5056669;28;991;-35
2023/03/14 00:26:17;;;;;;;;;;;;;;;24.92;26.50;101212.78;5056744;28;1146;-38
2023/03/14 00:28:43;;;;;;;;;;;;;;;25.00;26.39;101212.03;5056320;28;1142;-33
2023/03/14 00:31:09;;;;;;;;;;;;;;;24.96;26.42;101212.50;5055994;28;1055;-38
2023/03/14 00:33:34;;;;;;;;;;;;;;;24.95;26.29;101203.56;5056328;28;1043;-38
2023/03/14 00:36:02;;;;;;;;;;;;;;;24.93;26.52;101198.34;5055348;28;1113;-34
2023/03/14 00:38:29;;;;;;;;;;;;;;;24.80;26.56;101185.28;5056498;28;1058;-34
2023/03/14 00:40:54;;;;;;;;;;;;;;;24.72;26.69;101178.97;5056041;28;1989;-34
2023/03/14 00:43:23;;;;;;;;;;;;;;;24.85;26.63;101181.25;5055175;28;1163;-36
2023/03/14 00:45:49;;;;;;;;;;;;;;;24.86;26.42;101175.72;5056260;28;1026;-37
2023/03/14 00:48:14;;;;;;;;;;;;;;;24.93;26.56;101174.13;5056522;28;1225;-36
2023/03/14 00:50:40;;;;;;;;;;;;;;;24.95;26.30;101168.56;5054605;28;1126;-36
2023/03/14 00:53:06;;;;;;;;;;;;;;;25.00;26.13;101170.78;5055568;28;892;-38
2023/03/14 00:55:32;;;;;;;;;;;;;;;25.03;26.20;101165.94;5056320;28;1218;-39
2023/03/14 00:57:57;;;;;;;;;;;;;;;24.99;26.39;101167.25;5054737;28;1247;-38
2023/03/14 01:00:23;;;;;;;;;;;;;;;25.04;26.31;101154.16;5056122;28;1914;-38
2023/03/14 01:02:49;;;;;;;;;;;;;;;25.00;26.16;101149.25;5055286;28;1151;-38
2023/03/14 01:05:14;;;;;;;;;;;;;;;24.98;26.22;101151.25;5055556;28;917;-34
2023/03/14 01:07:41;;;;;;;;;;;;;;;25.02;26.10;101152.66;5054774;28;1205;-37
2023/03/14 01:10:07;;;;;;;;;;;;;;;25.00;26.10;101154.66;5054978;28;1249;-38
2023/03/14 01:12:32;;;;;;;;;;;;;;;24.98;26.23;101156.63;5056141;28;1284;-37
2023/03/14 01:14:58;;;;;;;;;;;;;;;24.99;26.16;101152.97;5056184;28;1055;-38
2023/03/14 01:17:23;;;;;;;;;;;;;;;25.00;26.12;101162.72;5051192;28;1138;-39
2023/03/14 01:19:49;;;;;;;;;;;;;;;25.02;26.31;101155.34;5046777;28;1235;-39
2023/03/14 01:22:14;;;;;;;;;;;;;;;24.99;26.22;101158.34;5055646;28;1909;-35
2023/03/14 01:24:40;;;;;;;;;;;;;;;25.02;26.21;101153.50;5071368;28;1222;-37
2023/03/14 01:27:05;;;;;;;;;;;;;;;25.03;26.18;101149.78;5054365;28;1242;-35
2023/03/14 01:29:31;;;;;;;;;;;;;;;25.02;26.17;101148.13;5054613;28;1215;-35
2023/03/14 01:31:56;;;;;;;;;;;;;;;25.10;25.88;101144.63;5071025;28;1417;-30
2023/03/14 01:34:22;;;;;;;;;;;;;;;25.00;26.21;101149.25;5070794;28;1205;-32
2023/03/14 01:36:48;;;;;;;;;;;;;;;24.98;26.29;101146.72;5054325;28;1122;-36
2023/03/14 01:39:14;;;;;;;;;;;;;;;25.02;26.18;101155.34;5055938;28;1202;-37
2023/03/14 01:41:40;;;;;;;;;;;;;;;25.02;26.10;101152.66;5053839;28;1991;-33
2023/03/14 01:44:08;;;;;;;;;;;;;;;24.96;26.20;101156.81;5054328;28;1309;-35
2023/03/14 01:46:44;;;;;;;;;;;;;;;25.05;26.20;101158.56;5054386;28;1211;-35
2023/03/14 01:49:13;;;;;;;;;;;;;;;25.01;26.12;101157.19;5054354;28;1201;-33
2023/03/14 01:51:42;;;;;;;;;;;;;;;25.05;26.07;101158.56;5054157;28;1162;-36
2023/03/14 01:54:28;;;;;;;;;;;;;;;25.08;26.21;101154.69;5055428;28;1025;-39
2023/03/14 01:56:57;;;;;;;;;;;;;;;25.02;26.21;101156.19;5063578;28;1406;-36
2023/03/14 01:59:23;;;;;;;;;;;;;;;24.98;26.29;101149.41;5054660;28;1095;-38
2023/03/14 02:01:49;;;;;;;;;;;;;;;24.92;26.45;101150.06;5070805;28;1979;-38
2023/03/14 02:04:14;;;;;;;;;;;;;;;25.02;26.37;101141.88;5053819;28;1217;-36
2023/03/14 02:06:47;;;;;;;;;;;;;;;24.95;26.39;101144.34;5071137;28;1191;-33
2023/03/14 02:09:13;;;;;;;;;;;;;;;24.97;26.47;101136.13;5056020;28;1427;-38
2023/03/14 02:11:38;;;;;;;;;;;;;;;25.02;26.30;101136.50;5074308;28;1177;-34
2023/03/14 02:14:35;;;;;;;;;;;;;;;25.04;26.09;101142.56;5057681;28;1146;-32
2023/03/14 02:17:16;;;;;;;;;;;;;;;24.98;26.35;101151.25;5057180;28;1194;-39
2023/03/14 02:20:14;;;;;;;;;;;;;;;24.94;26.30;101148.88;5060794;28;1125;-36
2023/03/14 02:22:43;;;;;;;;;;;;;;;25.01;26.32;101148.25;5057647;28;1983;-34
2023/03/14 02:25:18;;;;;;;;;;;;;;;24.97;26.21;101154.97;5057333;28;1158;-38
2023/03/14 02:27:44;;;;;;;;;;;;;;;24.94;26.18;101159.66;5058534;28;1119;-37
2023/03/14 02:30:11;;;;;;;;;;;;;;;25.03;26.12;101163.25;5040767;28;1128;-35
2023/03/14 02:32:40;;;;;;;;;;;;;;;24.84;26.42;101164.25;5090412;28;1220;-34
2023/03/14 02:35:06;;;;;;;;;;;;;;;24.90;26.40;101158.28;5040645;28;1391;-38
2023/03/14 02:37:36;;;;;;;;;;;;;;;24.96;26.19;101174.81;5074149;28;1280;-32
2023/03/14 02:40:04;;;;;;;;;;;;;;;24.99;26.43;101185.25;5056761;28;1138;-33
2023/03/14 02:42:31;;;;;;;;;;;;;;;24.89;26.29;101172.69;5056943;28;1910;-39
2023/03/14 02:45:20;;;;;;;;;;;;;;;24.91;26.45;101173.44;5056695;28;1214;-38
2023/03/14 02:47:48;;;;;;;;;;;;;;;24.83;26.39;101168.81;5056673;28;1195;-31
2023/03/14 02:50:15;;;;;;;;;;;;;;;24.87;26.56;101171.19;5040407;28;1131;-35
2023/03/14 02:52:40;;;;;;;;;;;;;;;24.87;26.50;101168.50;5073602;28;1295;-37
2023/03/14 02:55:07;;;;;;;;;;;;;;;24.87;26.38;101176.56;5056729;28;1984;-36
2023/03/14 02:57:33;;;;;;;;;;;;;;;24.89;26.50;101174.56;5056803;28;1296;-35
2023/03/14 02:59:59;;;;;;;;;;;;;;;24.84;26.49;101153.50;5058054;28;1286;-37
2023/03/14 03:02:26;;;;;;;;;;;;;;;24.89;26.63;101167.31;5056663;28;1918;-37
2023/03/14 03:04:51;;;;;;;;;;;;;;;24.91;26.58;101173.44;5056765;28;1206;-34
2023/03/14 03:07:17;;;;;;;;;;;;;;;24.85;26.65;101165.97;5058412;28;1041;-34
2023/03/14 03:09:42;;;;;;;;;;;;;;;24.86;26.96;101164.13;5056700;28;1171;-37
2023/03/14 03:12:08;;;;;;;;;;;;;;;24.73;27.20;101169.91;5056802;28;1137;-34
2023/03/14 03:14:33;;;;;;;;;;;;;;;24.71;27.32;101156.59;5058017;28;1043;-38
2023/03/14 03:17:02;;;;;;;;;;;;;;;24.70;27.26;101157.63;5055599;28;1205;-34
2023/03/14 03:19:27;;;;;;;;;;;;;;;24.78;27.01;101156.81;5056585;28;1332;-35
2023/03/14 03:21:53;;;;;;;;;;;;;;;24.79;27.03;101163.91;5057737;28;1910;-35
2023/03/14 03:24:18;;;;;;;;;;;;;;;24.82;26.90;101160.91;5056436;28;1143;-39
2023/03/14 03:26:44;;;;;;;;;;;;;;;24.83;27.02;101159.88;5057151;28;1105;-34
2023/03/14 03:29:10;;;;;;;;;;;;;;;24.76;26.98;101154.28;5055894;28;1990;-39
2023/03/14 03:31:36;;;;;;;;;;;;;;;24.88;26.88;101149.50;5057346;28;1118;-36
2023/03/14 03:34:02;;;;;;;;;;;;;;;24.88;26.71;101145.94;5056368;28;1253;-35
2023/03/14 03:36:28;;;;;;;;;;;;;;;24.82;26.79;101137.50;5056122;28;1211;-38
2023/03/14 03:38:53;;;;;;;;;;;;;;;24.85;26.74;101127.44;5056418;28;1135;-38
2023/03/14 03:41:19;;;;;;;;;;;;;;;24.80;26.86;101128.78;5055722;28;1910;-38
2023/03/14 03:43:46;;;;;;;;;;;;;;;24.81;26.63;101138.53;5056217;28;1142;-32
2023/03/14 03:46:14;;;;;;;;;;;;;;;24.80;26.93;101138.69;5072969;28;1698;-39
2023/03/14 03:48:40;;;;;;;;;;;;;;;24.90;26.61;101147.53;5057420;28;1086;-36
2023/03/14 03:51:06;;;;;;;;;;;;;;;24.89;26.75;101142.28;5055902;28;1151;-36
2023/03/14 03:53:33;;;;;;;;;;;;;;;24.78;26.79;101143.38;5072413;28;1160;-38
2023/03/14 03:55:59;;;;;;;;;;;;;;;24.80;26.81;101144.06;5072214;28;1134;-37
2023/03/14 03:58:24;;;;;;;;;;;;;;;24.86;26.65;101134.53;5072764;28;1281;-38
2023/03/14 04:00:50;;;;;;;;;;;;;;;24.80;26.68;101136.84;5056731;28;1910;-37
2023/03/14 04:03:15;;;;;;;;;;;;;;;24.86;26.62;101132.66;5089815;28;1235;-38
2023/03/14 04:05:42;;;;;;;;;;;;;;;24.76;26.80;101123.84;5055547;28;1153;-35
2023/03/14 04:08:09;;;;;;;;;;;;;;;24.82;26.68;101134.81;5055611;28;1179;-35
2023/03/14 04:10:34;;;;;;;;;;;;;;;24.78;26.65;101137.97;5056589;28;1122;-35
2023/03/14 04:13:20;;;;;;;;;;;;;;;24.82;26.53;101137.50;5056561;28;1119;-30
2023/03/14 04:15:50;;;;;;;;;;;;;;;24.82;26.56;101142.88;5072029;28;2334;-36
2023/03/14 04:18:24;;;;;;;;;;;;;;;24.76;26.68;101134.59;5054955;28;1122;-37
2023/03/14 04:20:56;;;;;;;;;;;;;;;24.81;26.55;101134.97;5055362;28;1969;-36
2023/03/14 04:23:26;;;;;;;;;;;;;;;24.89;26.45;101129.66;5055297;28;1142;-39
2023/03/14 04:25:53;;;;;;;;;;;;;;;24.80;26.78;101123.38;5055452;28;1252;-34
2023/03/14 04:28:20;;;;;;;;;;;;;;;24.85;26.87;101122.91;5055501;28;1174;-35
2023/03/14 04:30:46;;;;;;;;;;;;;;;24.87;26.71;101112.84;5071238;28;1201;-32
2023/03/14 04:33:17;;;;;;;;;;;;;;;24.96;26.80;101126.38;5055162;28;1156;-35
2023/03/14 04:35:50;;;;;;;;;;;;;;;24.93;26.60;101131.06;5055223;28;1359;-37
2023/03/14 04:38:16;;;;;;;;;;;;;;;24.63;24.60;101130.50;5055074;28;1268;-37
2023/03/14 04:40:43;;;;;;;;;;;;;;;24.20;22.79;101125.78;5071068;28;1906;-37
2023/03/14 04:43:10;;;;;;;;;;;;;;;23.12;22.36;101124.50;5055018;28;1317;-35
2023/03/14 04:45:37;;;;;;;;;;;;;;;23.05;22.57;101116.19;5054564;28;1284;-37
2023/03/14 04:48:06;;;;;;;;;;;;;;;23.10;22.16;101130.03;5038594;28;1190;-39
2023/03/14 04:50:31;;;;;;;;;;;;;;;22.84;22.04;101121.75;5056047;28;1070;-36
2023/03/14 04:52:57;;;;;;;;;;;;;;;22.94;21.91;101116.38;5056178;28;1067;-36
2023/03/14 04:55:22;;;;;;;;;;;;;;;23.30;21.49;101119.22;5054341;28;1297;-38
2023/03/14 04:57:48;;;;;;;;;;;;;;;23.91;22.63;101112.53;5071686;28;1141;-38
2023/03/14 05:00:14;;;;;;;;;;;;;;;24.27;22.28;101115.25;5054228;28;1025;-31
2023/03/14 05:02:51;;;;;;;;;;;;;;;24.49;22.84;101115.75;5054976;28;1983;-37
2023/03/14 05:05:34;;;;;;;;;;;;;;;23.96;22.96;101111.06;5054033;28;1259;-35
2023/03/14 05:08:05;;;;;;;;;;;;;;;23.74;20.87;101115.03;5054786;28;1265;-35
2023/03/14 05:10:37;;;;;;;;;;;;;;;23.53;21.55;101124.22;5055292;28;1086;-36
2023/03/14 05:13:23;;;;;;;;;;;;;;;23.41;19.59;101120.88;5048515;28;1281;-34
2023/03/14 05:15:50;;;;;;;;;;;;;;;23.33;19.27;101123.44;5055679;28;1175;-38
2023/03/14 05:18:41;;;;;;;;;;;;;;;23.32;19.24;101127.13;5054099;28;1982;-38
2023/03/14 05:21:25;;;;;;;;;;;;;;;23.16;19.18;101125.91;5055461;28;1997;-35
2023/03/14 05:24:07;;;;;;;;;;;;;;;23.48;19.81;101121.97;5054793;28;1335;-31
2023/03/14 05:26:50;;;;;;;;;;;;;;;24.16;19.74;101123.50;5055680;28;1103;-38
2023/03/14 05:29:31;;;;;;;;;;;;;;;24.36;19.66;101126.09;5071200;28;1279;-32
2023/03/14 05:32:07;;;;;;;;;;;;;;;24.54;20.06;101129.56;5056298;28;1071;-36
2023/03/14 05:34:58;;;;;;;;;;;;;;;24.81;20.01;101129.59;5038218;28;1473;-37
2023/03/14 05:37:50;;;;;;;;;;;;;;;24.80;20.32;101122.53;5035423;28;1231;-39
2023/03/14 05:40:39;;;;;;;;;;;;;;;24.73;21.08;101130.41;5045195;28;1957;-34
2023/03/14 05:43:27;;;;;;;;;;;;;;;24.70;21.65;101128.03;5042232;28;1169;-32
2023/03/14 05:46:22;;;;;;;;;;;;;;;24.57;22.10;101129.25;5058400;28;1247;-38
2023/03/14 05:49:08;;;;;;;;;;;;;;;24.86;22.01;101126.44;5038135;28;1197;-40
2023/03/14 05:51:52;;;;;;;;;;;;;;;24.84;22.13;101126.59;5059503;28;1181;-34
2023/03/14 05:54:47;;;;;;;;;;;;;;;24.84;22.29;101123.88;5062853;28;1416;-33
2023/03/14 05:57:21;;;;;;;;;;;;;;;25.00;22.30;101122.34;5058952;28;1086;-36
2023/03/14 06:00:06;;;;;;;;;;;;;;;24.96;22.51;101121.00;5059046;28;1116;-38
2023/03/14 06:02:52;;;;;;;;;;;;;;;25.00;22.67;101122.34;5091036;28;1910;-31
2023/03/14 06:05:23;;;;;;;;;;;;;;;24.96;22.91;101126.38;5091295;28;1460;-37
2023/03/14 06:07:53;;;;;;;;;;;;;;;25.03;22.73;101122.03;5058469;28;1360;-31
2023/03/14 06:10:19;;;;;;;;;;;;;;;24.92;22.97;101121.28;5057892;28;1173;-37
2023/03/14 06:12:45;;;;;;;;;;;;;;;25.05;23.05;101128.94;5058001;28;1197;-39
2023/03/14 06:15:11;;;;;;;;;;;;;;;24.96;23.32;101127.19;5059001;28;1023;-38
2023/03/14 06:17:37;;;;;;;;;;;;;;;25.06;23.24;101129.78;5073740;28;1359;-38
2023/03/14 06:20:08;;;;;;;;;;;;;;;25.22;23.04;101133.56;5057702;28;1296;-38
2023/03/14 06:22:34;;;;;;;;;;;;;;;25.16;23.44;101127.81;5090532;28;1980;-37
2023/03/14 06:25:00;;;;;;;;;;;;;;;25.18;23.43;101127.66;5051099;28;1265;-38
2023/03/14 06:27:25;;;;;;;;;;;;;;;24.26;22.02;101118.94;5050878;28;1048;-36
2023/03/14 06:29:54;;;;;;;;;;;;;;;23.89;22.03;101122.59;5057335;28;1310;-38
2023/03/14 06:32:20;;;;;;;;;;;;;;;23.84;22.39;101117.66;5056618;28;2368;-36
2023/03/14 06:34:48;;;;;;;;;;;;;;;24.04;23.12;101117.53;5048863;28;1387;-37
2023/03/14 06:37:13;;;;;;;;;;;;;;;24.36;23.78;101115.34;5083297;28;1234;-37
2023/03/14 06:39:39;;;;;;;;;;;;;;;24.62;23.30;101114.50;5046680;28;1382;-38
2023/03/14 06:42:12;;;;;;;;;;;;;;;24.68;23.87;101113.88;5056999;28;1963;-38
2023/03/14 06:44:39;;;;;;;;;;;;;;;24.92;22.90;101113.22;5056842;28;1117;-40
2023/03/14 06:47:05;;;;;;;;;;;;;;;24.99;22.50;101115.28;5057134;28;1102;-39
2023/03/14 06:49:31;;;;;;;;;;;;;;;25.03;22.45;101111.25;5044196;28;1194;-40
2023/03/14 06:51:59;;;;;;;;;;;;;;;24.46;22.17;101105.31;5056779;28;1509;-34
2023/03/14 06:54:24;;;;;;;;;;;;;;;23.97;23.65;101098.50;5072643;28;972;-35
2023/03/14 06:56:50;;;;;;;;;;;;;;;23.90;21.88;101100.09;5057271;28;1107;-33
2023/03/14 06:59:15;;;;;;;;;;;;;;;24.15;21.74;101089.56;5057034;28;1371;-32
2023/03/14 07:01:44;;;;;;;;;;;;;;;24.12;21.57;101093.44;5056756;28;1917;-39
2023/03/14 07:04:11;;;;;;;;;;;;;;;24.15;20.93;101086.88;5056605;28;1204;-38
2023/03/14 07:06:43;;;;;;;;;;;;;;;24.15;20.88;101087.75;5056179;28;1993;-36
2023/03/14 07:09:12;;;;;;;;;;;;;;;24.18;21.00;101084.78;5057905;28;1094;-37
2023/03/14 07:11:41;;;;;;;;;;;;;;;24.18;20.75;101083.91;5056635;28;1486;-38
2023/03/14 07:14:07;;;;;;;;;;;;;;;24.50;20.83;101085.19;5057490;28;1003;-30
2023/03/14 07:16:33;;;;;;;;;;;;;;;24.69;20.98;101076.06;5058089;28;1174;-37
2023/03/14 07:18:59;;;;;;;;;;;;;;;24.84;21.51;101080.84;5057619;28;1142;-35
2023/03/14 07:21:24;;;;;;;;;;;;;;;24.80;22.16;101080.34;5073182;28;1898;-29
2023/03/14 07:23:50;;;;;;;;;;;;;;;24.99;22.16;101085.69;5057437;28;1083;-36
2023/03/14 07:26:16;;;;;;;;;;;;;;;25.15;21.90;101083.06;5089884;28;1420;-36
2023/03/14 07:28:47;;;;;;;;;;;;;;;25.28;22.10;101081.75;5051120;28;1331;-36
2023/03/14 07:31:16;;;;;;;;;;;;;;;25.19;22.20;101075.50;5038076;28;1430;-37
2023/03/14 07:33:42;;;;;;;;;;;;;;;25.33;22.04;101071.34;5055972;28;1233;-35
2023/03/14 07:36:07;;;;;;;;;;;;;;;25.10;22.64;101073.78;5056357;28;942;-34
2023/03/14 07:38:33;;;;;;;;;;;;;;;25.42;21.96;101064.97;5089515;28;1105;-33
2023/03/14 07:41:08;;;;;;;;;;;;;;;25.42;22.06;101066.84;5056862;28;1902;-37
2023/03/14 07:43:38;;;;;;;;;;;;;;;25.24;22.67;101067.78;5055407;28;1185;-39
2023/03/14 07:46:04;;;;;;;;;;;;;;;25.66;22.20;101068.78;5056800;28;1058;-35
2023/03/14 07:48:30;;;;;;;;;;;;;;;25.49;22.18;101062.47;5056898;28;984;-34
2023/03/14 07:50:55;;;;;;;;;;;;;;;25.65;22.43;101053.63;5056553;28;1182;-35
2023/03/14 07:53:21;;;;;;;;;;;;;;;25.61;22.29;101056.78;5056722;28;1118;-34
2023/03/14 07:55:47;;;;;;;;;;;;;;;25.76;22.64;101057.84;5056389;28;881;-35
2023/03/14 07:58:13;;;;;;;;;;;;;;;25.58;22.99;101049.88;5051498;28;1150;-36
2023/03/14 08:00:38;;;;;;;;;;;;;;;25.51;23.20;101046.13;5049063;28;1965;-34
2023/03/14 08:03:04;;;;;;;;;;;;;;;25.65;23.43;101050.09;5056750;28;1230;-35
2023/03/14 08:05:29;;;;;;;;;;;;;;;25.71;23.03;101041.31;5050983;28;1286;-32
2023/03/14 08:07:55;;;;;;;;;;;;;;;25.59;23.38;101040.75;5055573;28;1011;-36
2023/03/14 08:10:23;;;;;;;;;;;;;;;25.67;23.12;101034.59;5056977;28;1159;-37
2023/03/14 08:12:49;;;;;;;;;;;;;;;25.80;23.09;101040.34;5056504;28;1141;-35
2023/03/14 08:15:15;;;;;;;;;;;;;;;25.65;23.10;101037.47;5056754;28;1054;-38
2023/03/14 08:17:40;;;;;;;;;;;;;;;25.50;23.44;101031.00;5056372;28;1051;-35
2023/03/14 08:20:11;;;;;;;;;;;;;;;25.58;23.33;101025.63;5056293;28;928;-36
2023/03/14 08:22:36;;;;;;;;;;;;;;;25.52;23.16;101028.97;5056321;28;1930;-34
2023/03/14 08:25:02;;;;;;;;;;;;;;;25.37;23.70;101024.25;5071060;28;1144;-31
2023/03/14 08:27:28;;;;;;;;;;;;;;;25.40;23.82;101023.91;5055905;28;935;-34
2023/03/14 08:29:53;;;;;;;;;;;;;;;25.36;23.78;101016.34;5055928;28;1054;-33
2023/03/14 08:32:20;;;;;;;;;;;;;;;27.94;21.20;101015.69;5055732;28;836;-35
2023/03/14 08:34:45;;;;;;;;;;;;;;;27.99;20.61;101017.81;5056232;28;1090;-31
2023/03/14 08:37:11;;;;;;;;;;;;;;;26.48;22.21;101012.34;5055471;28;1106;-35
2023/03/14 08:39:36;;;;;;;;;;;;;;;27.47;21.45;101009.41;5056445;28;1209;-34
2023/03/14 08:42:02;;;;;;;;;;;;;;;27.98;20.85;101014.28;5056090;28;2012;-29
2023/03/14 08:44:27;;;;;;;;;;;;;;;28.22;20.45;101009.66;5055505;28;871;-32
2023/03/14 08:46:53;;;;;;;;;;;;;;;28.41;20.43;100999.34;5054829;28;1192;-35
2023/03/14 08:49:18;;;;;;;;;;;;;;;28.57;19.97;100992.09;5056415;28;1172;-34
2023/03/14 08:51:44;;;;;;;;;;;;;;;28.81;19.97;100988.22;5055371;28;1109;-31
2023/03/14 08:54:10;;;;;;;;;;;;;;;28.95;19.83;100986.53;5055450;28;920;-29
2023/03/14 08:56:37;;;;;;;;;;;;;;;29.00;19.68;100983.28;5055507;28;844;-33
2023/03/14 08:59:03;;;;;;;;;;;;;;;29.55;19.42;100990.94;5055018;28;1265;-33
2023/03/14 09:01:29;;;;;;;;;;;;;;;29.32;19.62;100977.59;5056178;28;1906;-33
2023/03/14 09:03:54;;;;;;;;;;;;;;;29.29;19.45;100977.97;5055540;28;1098;-33
2023/03/14 09:06:20;;;;;;;;;;;;;;;29.50;19.44;100981.69;5055609;28;1038;-30
2023/03/14 09:08:45;;;;;;;;;;;;;;;29.57;19.39;100983.47;5053785;28;1031;-32
2023/03/14 09:11:11;;;;;;;;;;;;;;;29.62;19.39;100987.47;5049329;28;1402;-30
2023/03/14 09:13:36;;;;;;;;;;;;;;;29.80;19.40;100968.88;5049554;28;1102;-32
2023/03/14 09:16:03;;;;;;;;;;;;;;;29.86;19.14;100974.56;5043069;28;1151;-32
2023/03/14 09:18:28;;;;;;;;;;;;;;;29.89;19.07;100976.88;5057607;28;1045;-28
2023/03/14 09:20:54;;;;;;;;;;;;;;;30.21;19.06;100971.06;5059315;28;1902;-29
2023/03/14 09:23:20;;;;;;;;;;;;;;;30.19;18.90;100971.25;5059181;28;1214;-29
2023/03/14 09:25:45;;;;;;;;;;;;;;;30.14;19.01;100962.84;5060009;28;1166;-29
2023/03/14 09:28:11;;;;;;;;;;;;;;;30.07;19.07;100965.53;5059872;28;1249;-29
2023/03/14 09:30:37;;;;;;;;;;;;;;;30.25;19.11;100965.03;5060231;28;1071;-31
2023/03/14 09:33:02;;;;;;;;;;;;;;;30.22;18.59;100960.03;5059213;28;888;-31
2023/03/14 09:35:28;;;;;;;;;;;;;;;30.28;18.69;100953.78;5059603;28;1087;-30
2023/03/14 09:37:53;;;;;;;;;;;;;;;30.27;18.71;100959.41;5059546;28;1062;-33
2023/03/14 09:40:20;;;;;;;;;;;;;;;30.39;18.62;100957.84;5059495;28;1174;-34
2023/03/14 09:42:50;;;;;;;;;;;;;;;30.41;18.72;100958.44;5059287;28;1997;-29
2023/03/14 09:45:17;;;;;;;;;;;;;;;30.36;18.65;100954.66;5059452;28;866;-29
2023/03/14 09:47:42;;;;;;;;;;;;;;;30.41;18.45;100954.91;5055098;28;1076;-30
2023/03/14 09:50:12;;;;;;;;;;;;;;;30.29;18.85;100949.22;5051247;28;1206;-31
2023/03/14 09:52:39;;;;;;;;;;;;;;;30.37;18.68;100956.34;5054945;28;1043;-28
2023/03/14 09:55:05;;;;;;;;;;;;;;;30.31;18.79;100945.25;5051275;28;1032;-28
2023/03/14 09:57:32;;;;;;;;;;;;;;;30.30;18.83;100943.56;5056108;28;1098;-29
2023/03/14 10:00:07;;;;;;;;;;;;;;;30.35;18.25;100939.41;5057645;28;1103;-28
2023/03/14 10:02:34;;;;;;;;;;;;;;;30.26;17.92;100936.03;5058770;28;1914;-30
2023/03/14 10:05:00;;;;;;;;;;;;;;;30.12;17.42;100925.06;5059078;28;1174;-30
2023/03/14 10:07:28;;;;;;;;;;;;;;;30.13;16.92;100934.06;5058955;28;1126;-29
2023/03/14 10:09:53;;;;;;;;;;;;;;;30.12;16.96;100927.78;5050330;28;1253;-29
2023/03/14 10:12:19;;;;;;;;;;;;;;;30.22;16.41;100921.19;5054393;28;1098;-31
2023/03/14 10:14:51;;;;;;;;;;;;;;;30.06;16.45;100918.56;5059190;28;1170;-31
2023/03/14 10:17:17;;;;;;;;;;;;;;;30.07;16.25;100916.69;5058987;28;1101;-32
2023/03/14 10:20:00;;;;;;;;;;;;;;;30.03;16.19;100912.72;5058602;28;1115;-35
2023/03/14 10:22:27;;;;;;;;;;;;;;;30.10;15.91;100910.88;5058603;28;1975;-32
2023/03/14 10:24:54;;;;;;;;;;;;;;;30.04;15.80;100912.53;5058966;28;1230;-35
2023/03/14 10:27:20;;;;;;;;;;;;;;;30.01;15.72;100906.66;5058951;28;1039;-30
2023/03/14 10:29:58;;;;;;;;;;;;;;;29.91;15.90;100905.13;5057566;28;1058;-30
2023/03/14 10:32:28;;;;;;;;;;;;;;;30.08;15.96;100895.84;5047761;28;917;-31
2023/03/14 10:35:05;;;;;;;;;;;;;;;30.18;16.38;100901.72;5058892;28;1015;-30
2023/03/14 10:37:30;;;;;;;;;;;;;;;30.26;16.42;100889.91;5054258;28;1368;-32
2023/03/14 10:39:58;;;;;;;;;;;;;;;30.18;16.80;100889.00;5042199;28;1283;-33
2023/03/14 10:42:24;;;;;;;;;;;;;;;30.28;16.89;100877.81;5058210;28;1980;-31
2023/03/14 10:44:57;;;;;;;;;;;;;;;30.15;17.13;100875.00;5058419;28;1031;-32
2023/03/14 10:47:23;;;;;;;;;;;;;;;30.21;17.32;100859.84;5058514;28;1102;-26
2023/03/14 10:49:49;;;;;;;;;;;;;;;30.02;17.52;100865.75;5055813;28;1083;-31
2023/03/14 10:52:15;;;;;;;;;;;;;;;28.96;18.91;100852.81;5058530;28;1232;-29
2023/03/14 10:54:41;;;;;;;;;;;;;;;29.01;18.74;100848.72;5057476;28;995;-30
2023/03/14 10:57:07;;;;;;;;;;;;;;;28.82;19.38;100840.16;5057517;28;899;-33
2023/03/14 10:59:36;;;;;;;;;;;;;;;28.37;19.55;100838.44;5058196;28;1030;-29
2023/03/14 11:02:10;;;;;;;;;;;;;;;29.40;18.86;100827.56;5052802;28;1910;-28
2023/03/14 11:05:14;;;;;;;;;;;;;;;29.37;18.87;100820.69;5049881;28;1064;-29
2023/03/14 11:07:40;;;;;;;;;;;;;;;29.39;18.75;100815.06;5035587;28;1356;-31
2023/03/14 11:10:12;;;;;;;;;;;;;;;29.64;18.53;100809.22;5035381;28;1153;-31
2023/03/14 11:12:40;;;;;;;;;;;;;;;29.89;18.56;100804.16;5032577;28;1192;-30
2023/03/14 11:15:26;;;;;;;;;;;;;;;30.14;18.40;100794.66;5057924;28;1186;-35
2023/03/14 11:17:51;;;;;;;;;;;;;;;28.48;20.17;100789.22;5031865;28;2154;-31
2023/03/14 11:20:24;;;;;;;;;;;;;;;28.27;20.44;100781.03;5056646;28;1446;-29
2023/03/14 11:22:59;;;;;;;;;;;;;;;29.45;19.38;100773.63;5056867;28;1918;-29
2023/03/14 11:25:44;;;;;;;;;;;;;;;29.59;19.13;100771.88;5055736;28;1183;-28
2023/03/14 11:28:24;;;;;;;;;;;;;;;29.67;19.12;100758.16;5056006;28;1254;-32
2023/03/14 11:30:51;;;;;;;;;;;;;;;29.87;18.90;100757.41;5053317;28;1250;-29
2023/03/14 11:33:18;;;;;;;;;;;;;;;30.06;18.81;100749.56;5057341;28;943;-31
2023/03/14 11:35:44;;;;;;;;;;;;;;;30.18;18.60;100747.91;5057420;28;1034;-30
2023/03/14 11:38:21;;;;;;;;;;;;;;;30.28;18.64;100744.03;5057122;28;1099;-31
2023/03/14 11:40:47;;;;;;;;;;;;;;;30.36;18.33;100732.13;5055929;28;1898;-31
2023/03/14 11:43:31;;;;;;;;;;;;;;;30.36;18.45;100730.28;5057087;28;1096;-31
2023/03/14 11:46:09;;;;;;;;;;;;;;;30.24;18.69;100723.75;5056877;28;1055;-27
2023/03/14 11:48:37;;;;;;;;;;;;;;;29.42;19.40;100722.53;5056849;28;1066;-33
2023/03/14 11:51:04;;;;;;;;;;;;;;;28.78;20.15;100720.59;5052490;28;1007;-35
2023/03/14 11:53:39;;;;;;;;;;;;;;;29.04;19.84;100721.03;5050234;28;1036;-33
2023/03/14 11:56:09;;;;;;;;;;;;;;;28.82;20.28;100707.50;5055258;28;1195;-31
2023/03/14 11:58:34;;;;;;;;;;;;;;;29.55;19.73;100705.50;5052432;28;1147;-28
2023/03/14 12:01:02;;;;;;;;;;;;;;;29.19;19.71;100699.28;5051997;28;1902;-27
2023/03/14 12:03:30;;;;;;;;;;;;;;;29.04;19.87;100697.50;5052702;28;1051;-31
2023/03/14 12:06:02;;;;;;;;;;;;;;;29.60;19.72;100685.94;5054403;28;1110;-28
2023/03/14 12:08:27;;;;;;;;;;;;;;;30.30;18.86;100691.22;5056622;28;1170;-33
2023/03/14 12:10:54;;;;;;;;;;;;;;;28.59;20.74;100684.22;5056834;28;1035;-31
2023/03/14 12:13:19;;;;;;;;;;;;;;;28.94;20.62;100672.63;5052297;28;1083;-38
2023/03/14 12:15:55;;;;;;;;;;;;;;;29.97;19.40;100669.41;5055201;28;1031;-36
2023/03/14 12:18:41;;;;;;;;;;;;;;;28.59;20.64;100662.56;5056562;28;1050;-35
2023/03/14 12:21:07;;;;;;;;;;;;;;;28.53;20.88;100666.88;5043443;28;1984;-31
2023/03/14 12:23:43;;;;;;;;;;;;;;;29.70;19.53;100660.16;5056395;28;1043;-32
2023/03/14 12:26:12;;;;;;;;;;;;;;;30.14;19.35;100654.44;5052614;28;1010;-36
2023/03/14 12:28:37;;;;;;;;;;;;;;;30.72;18.46;100646.75;5047968;28;1254;-31
2023/03/14 12:31:21;;;;;;;;;;;;;;;30.70;18.61;100650.75;5056766;28;1123;-31
2023/03/14 12:33:47;;;;;;;;;;;;;;;29.85;19.67;100644.75;5055984;28;1154;-30
2023/03/14 12:36:18;;;;;;;;;;;;;;;29.91;19.47;100643.97;5056417;28;1186;-33
2023/03/14 12:39:07;;;;;;;;;;;;;;;30.01;19.38;100638.94;5055892;28;1062;-35
2023/03/14 12:41:40;;;;;;;;;;;;;;;30.12;19.06;100634.81;5009614;28;1983;-30
2023/03/14 12:44:25;;;;;;;;;;;;;;;31.01;18.44;100630.25;5052686;28;1208;-33
2023/03/14 12:46:50;;;;;;;;;;;;;;;29.36;19.89;100625.78;5055832;28;995;-32
2023/03/14 12:49:16;;;;;;;;;;;;;;;29.15;20.42;100620.28;5056174;28;1178;-39
2023/03/14 12:51:43;;;;;;;;;;;;;;;28.68;20.74;100617.22;5055103;28;1111;-38
2023/03/14 12:54:09;;;;;;;;;;;;;;;28.58;20.93;100612.16;5052122;28;1134;-33
2023/03/14 12:56:37;;;;;;;;;;;;;;;28.54;20.82;100611.75;5056481;28;1026;-35
2023/03/14 12:59:14;;;;;;;;;;;;;;;28.27;20.81;100606.06;5055911;28;1182;-34